ATY Airport (Watertown Rgnl) Information

FAA: ATY - ICAO: KATY

ATY Airport Location

State South Dakota
County Codington
City Watertown
ATY Airport is 2 miles northwest of Watertown, SD.
Latitude 44-54-50.3000N
Longitude 097-09-17.0000W
Elevation 1,749ft

KATY Airport METARs

METAR KATY 251753Z AUTO 14011KT 10SM CLR 08/02 A3008 RMK AO2 SLP196 T00830017 10083 20011 58012
Altimeter 30.08"
Temperature 8.3°C (46.9°F)
Wind 140° at 11KT
Clouds Skies are clear.
Visibility 10.0mi
Time observed: 2021-10-25T17:53:00Z

ATY Airport Details

Status Operational
Activation December 1937
Ownership Public
Usage Public
Chart TWIN CITIES
ATC on-site No
Beacon schedule sunset-sunrise
Beacon color clear green

ATY Airport Contacts

Owner CITY OF WATERTOWN
Owner address P.O. BOX 910, WATERTOWN, SD 57201
Owner phone 605-882-6209
Manager MICHAEL GIBBS - CEO
Manager address HEART HOSPITAL OF SOUTH DAKOTA, 4500 WEST 69TH ST, SIOUX FALLS, SD 57108
Manager phone 605-977-7000

ATY Airport (Watertown Rgnl) Radio Frequencies

ATY (Airport) Radio Frequencies

UNICOM 123.05
Common traffic advisory frequency (CTAF) 123.05